createdAt,value
2018-07-04T00:02:25.563Z,64.27
2018-07-04T00:05:11.877Z,64.91
2018-07-04T00:07:58.183Z,64.66
2018-07-04T00:10:44.838Z,64.92
2018-07-04T00:13:31.246Z,64.86
2018-07-04T00:16:17.675Z,65.30
2018-07-04T00:19:04.152Z,64.39
2018-07-04T00:21:50.406Z,65.82
2018-07-04T00:24:36.786Z,64.99
2018-07-04T00:27:23.281Z,65.75
2018-07-04T00:30:09.536Z,65.87
2018-07-04T00:32:55.644Z,65.41
2018-07-04T00:35:41.974Z,65.50
2018-07-04T00:38:28.238Z,66.05
2018-07-04T00:41:14.663Z,66.35
2018-07-04T00:44:00.902Z,66.13
2018-07-04T00:46:47.518Z,66.77
2018-07-04T00:49:33.913Z,67.67
2018-07-04T00:52:19.971Z,68.24
2018-07-04T00:55:06.437Z,67.92
2018-07-04T00:57:52.610Z,68.99
2018-07-04T01:00:39.342Z,69.70
2018-07-04T01:03:25.590Z,70.12
2018-07-04T01:06:11.684Z,70.41
2018-07-04T01:08:57.867Z,70.26
2018-07-04T01:11:44.011Z,71.37
2018-07-04T01:14:30.259Z,70.38
2018-07-04T01:17:17.068Z,70.62
2018-07-04T01:20:03.283Z,71.23
2018-07-04T01:22:49.564Z,70.41
2018-07-04T01:25:35.925Z,69.93
2018-07-04T01:28:26.597Z,68.95
2018-07-04T01:31:12.665Z,69.53
2018-07-04T01:33:59.225Z,69.29
2018-07-04T01:36:45.420Z,68.98
2018-07-04T01:39:31.475Z,70.09
2018-07-04T01:42:17.667Z,70.25
2018-07-04T01:45:03.922Z,69.63
2018-07-04T01:47:50.128Z,70.14
2018-07-04T01:50:36.500Z,70.10
2018-07-04T01:53:23.069Z,69.33
2018-07-04T01:56:09.366Z,69.39
2018-07-04T01:58:55.711Z,69.64
2018-07-04T02:01:42.072Z,69.43
2018-07-04T02:04:28.251Z,68.42
2018-07-04T02:07:14.658Z,68.63
2018-07-04T02:10:00.885Z,68.78
2018-07-04T02:12:46.986Z,68.18
2018-07-04T02:15:33.219Z,68.92
2018-07-04T02:18:19.471Z,68.74
2018-07-04T02:21:05.691Z,68.86
2018-07-04T02:23:52.315Z,68.88
2018-07-04T02:26:32.599Z,69.69
2018-07-04T02:29:19.072Z,69.24
2018-07-04T02:32:05.428Z,68.28
2018-07-04T02:34:55.840Z,68.57
2018-07-04T02:37:42.960Z,68.99
2018-07-04T02:40:29.376Z,68.83
2018-07-04T02:43:15.522Z,69.85
2018-07-04T02:46:01.826Z,69.68
2018-07-04T02:48:48.056Z,69.51
2018-07-04T02:51:34.324Z,69.70
2018-07-04T02:54:20.681Z,69.14
2018-07-04T02:57:07.161Z,69.50
2018-07-04T02:59:53.690Z,68.89
2018-07-04T03:02:40.103Z,68.81
2018-07-04T03:05:20.323Z,69.35
2018-07-04T03:08:06.455Z,68.92
2018-07-04T03:10:53.039Z,68.85
2018-07-04T03:13:39.518Z,68.33
2018-07-04T03:16:25.727Z,68.77
2018-07-04T03:19:12.008Z,69.01
2018-07-04T03:21:58.521Z,68.10
2018-07-04T03:24:44.891Z,68.45
2018-07-04T03:27:31.218Z,68.93
2018-07-04T03:30:17.700Z,68.47
2018-07-04T03:33:04.239Z,68.30
2018-07-04T03:35:50.593Z,68.46
2018-07-04T03:38:36.755Z,68.03
2018-07-04T03:41:23.032Z,68.64
2018-07-04T03:44:09.365Z,68.84
2018-07-04T03:46:56.324Z,68.57
2018-07-04T03:49:42.636Z,68.27
2018-07-04T03:52:28.887Z,68.48
2018-07-04T03:55:15.093Z,68.36
2018-07-04T03:57:55.181Z,68.13
2018-07-04T04:00:41.429Z,67.15
2018-07-04T04:03:27.861Z,68.01
2018-07-04T04:06:14.280Z,67.90
2018-07-04T04:09:00.664Z,68.43
2018-07-04T04:11:46.919Z,68.04
2018-07-04T04:14:33.187Z,67.06
2018-07-04T04:17:19.828Z,67.62
2018-07-04T04:20:06.534Z,67.24
2018-07-04T04:22:52.787Z,66.71
2018-07-04T04:25:39.211Z,66.50
2018-07-04T04:28:25.499Z,67.75
2018-07-04T04:31:11.925Z,66.33
2018-07-04T04:33:58.286Z,66.02
2018-07-04T04:36:44.919Z,66.16
2018-07-04T04:39:31.411Z,65.82
2018-07-04T04:42:17.561Z,67.03
2018-07-04T04:45:03.779Z,66.50
2018-07-04T04:47:44.089Z,66.33
2018-07-04T04:50:30.208Z,66.16
2018-07-04T04:53:16.562Z,65.83
2018-07-04T04:56:02.802Z,65.72
2018-07-04T04:58:49.233Z,64.43
2018-07-04T05:01:35.503Z,64.51
2018-07-04T05:04:21.790Z,64.29
2018-07-04T05:07:08.122Z,63.66
2018-07-04T05:09:54.705Z,63.71
2018-07-04T05:12:40.908Z,64.26
2018-07-04T05:15:27.270Z,64.05
2018-07-04T05:18:13.557Z,63.11
2018-07-04T05:20:59.776Z,62.84
2018-07-04T05:23:45.938Z,63.38
2018-07-04T05:26:37.147Z,62.82
2018-07-04T05:29:23.373Z,62.40
2018-07-04T05:32:09.915Z,62.21
2018-07-04T05:34:56.177Z,61.81
2018-07-04T05:37:42.308Z,61.87
2018-07-04T05:40:28.574Z,61.33
2018-07-04T05:43:15.043Z,62.09
2018-07-04T05:46:01.291Z,60.97
2018-07-04T05:48:47.569Z,60.06
2018-07-04T05:51:33.725Z,60.42
2018-07-04T05:54:20.234Z,60.30
2018-07-04T05:57:06.534Z,60.11
2018-07-04T05:59:53.207Z,60.22
2018-07-04T06:02:39.400Z,59.87
2018-07-04T06:05:25.609Z,59.59
2018-07-04T06:08:11.860Z,58.88
2018-07-04T06:10:58.069Z,58.82
2018-07-04T06:13:44.426Z,59.38
2018-07-04T06:16:30.796Z,58.34
2018-07-04T06:19:16.903Z,59.13
2018-07-04T06:22:03.090Z,58.66
2018-07-04T06:24:49.372Z,58.10
2018-07-04T06:27:35.482Z,57.37
2018-07-04T06:30:22.086Z,57.28
2018-07-04T06:33:08.438Z,57.15
2018-07-04T06:35:48.702Z,56.44
2018-07-04T06:38:16.479Z,56.55
2018-07-04T06:40:44.252Z,55.44
2018-07-04T06:43:12.145Z,56.33
2018-07-04T06:45:39.991Z,55.56
2018-07-04T06:48:08.086Z,56.24
2018-07-04T06:50:35.931Z,55.99
2018-07-04T06:53:04.102Z,55.96
2018-07-04T06:55:31.965Z,55.57
2018-07-04T06:57:59.761Z,53.97
2018-07-04T07:00:27.562Z,53.66
2018-07-04T07:03:13.718Z,53.43
2018-07-04T07:05:59.945Z,52.69
2018-07-04T07:08:46.360Z,52.58
2018-07-04T07:11:32.980Z,53.33
2018-07-04T07:14:19.271Z,53.92
2018-07-04T07:17:05.540Z,54.08
2018-07-04T07:19:51.687Z,54.33
2018-07-04T07:22:38.082Z,52.60
2018-07-04T07:25:24.419Z,51.54
2018-07-04T07:28:11.010Z,51.36
2018-07-04T07:30:57.250Z,50.07
2018-07-04T07:33:43.498Z,49.61
2018-07-04T07:36:23.724Z,48.42
2018-07-04T07:39:09.943Z,48.89
2018-07-04T07:41:56.236Z,48.40
2018-07-04T07:44:42.745Z,48.08
2018-07-04T07:47:28.904Z,48.02
2018-07-04T07:50:15.223Z,47.19
2018-07-04T07:53:01.450Z,46.65
2018-07-04T07:55:47.849Z,48.48
2018-07-04T07:58:34.023Z,47.10
2018-07-04T08:01:20.859Z,46.92
2018-07-04T08:04:07.143Z,46.57
2018-07-04T08:06:53.413Z,46.87
2018-07-04T08:09:39.626Z,46.76
2018-07-04T08:12:25.902Z,45.75
2018-07-04T08:15:12.231Z,45.67
2018-07-04T08:17:59.078Z,44.06
2018-07-04T08:20:45.522Z,44.66
2018-07-04T08:23:31.934Z,43.80
2018-07-04T08:26:18.175Z,42.59
2018-07-04T08:29:04.733Z,41.90
2018-07-04T08:31:51.138Z,42.63
2018-07-04T08:34:37.731Z,43.02
2018-07-04T08:37:23.938Z,41.67
2018-07-04T08:40:10.164Z,41.51
2018-07-04T08:42:56.331Z,41.42
2018-07-04T08:45:42.816Z,39.58
2018-07-04T08:48:29.290Z,38.42
2018-07-04T08:51:09.892Z,38.41
2018-07-04T08:53:56.324Z,37.24
2018-07-04T08:56:42.627Z,37.72
2018-07-04T08:59:28.838Z,38.27
2018-07-04T09:02:15.004Z,38.12
2018-07-04T09:05:01.210Z,38.53
2018-07-04T09:07:47.712Z,37.12
2018-07-04T09:10:34.013Z,37.29
2018-07-04T09:13:20.055Z,37.31
2018-07-04T09:16:06.202Z,37.44
2018-07-04T09:18:52.616Z,37.09
2018-07-04T09:21:38.886Z,37.21
2018-07-04T09:24:25.515Z,36.78
2018-07-04T09:27:11.713Z,35.82
2018-07-04T09:29:57.883Z,35.77
2018-07-04T09:32:44.235Z,35.70
2018-07-04T09:35:30.482Z,35.50
2018-07-04T09:38:16.709Z,35.81
2018-07-04T09:41:03.228Z,35.95
2018-07-04T09:43:49.725Z,34.84
2018-07-04T09:46:36.139Z,35.41
2018-07-04T09:49:22.648Z,33.91
2018-07-04T09:52:08.859Z,34.37
2018-07-04T09:54:55.335Z,35.27
2018-07-04T09:57:42.386Z,34.62
2018-07-04T10:00:29.834Z,33.68
2018-07-04T10:03:16.240Z,34.67
2018-07-04T10:06:02.595Z,34.68
2018-07-04T10:08:42.751Z,34.37
2018-07-04T10:11:28.908Z,34.11
2018-07-04T10:14:15.680Z,33.68
2018-07-04T10:17:01.818Z,32.64
2018-07-04T10:19:47.890Z,32.56
2018-07-04T10:22:34.157Z,31.32
2018-07-04T10:25:20.701Z,32.95
2018-07-04T10:28:06.788Z,32.33
2018-07-04T10:30:53.370Z,33.08
2018-07-04T10:33:39.530Z,31.81
2018-07-04T10:36:25.756Z,32.06
2018-07-04T10:39:11.882Z,30.38
2018-07-04T10:41:58.021Z,32.52
2018-07-04T10:44:44.424Z,32.43
2018-07-04T10:47:30.830Z,31.96
2018-07-04T10:50:17.074Z,31.36
2018-07-04T10:53:03.597Z,30.58
2018-07-04T10:55:49.769Z,30.51
2018-07-04T10:58:36.088Z,30.93
2018-07-04T11:01:22.416Z,29.86
2018-07-04T11:04:09.427Z,30.22
2018-07-04T11:06:55.534Z,31.56
2018-07-04T11:09:41.724Z,31.64
2018-07-04T11:12:27.900Z,32.61
2018-07-04T11:15:14.131Z,31.17
2018-07-04T11:18:00.455Z,30.54
2018-07-04T11:20:47.432Z,30.11
2018-07-04T11:23:33.535Z,31.12
2018-07-04T11:26:19.820Z,32.34
2018-07-04T11:29:05.999Z,31.48
2018-07-04T11:31:53.160Z,31.37
2018-07-04T11:34:39.558Z,29.77
2018-07-04T11:37:26.180Z,28.60
2018-07-04T11:40:12.368Z,28.55
2018-07-04T11:42:58.622Z,27.67
2018-07-04T11:45:44.811Z,27.30
2018-07-04T11:48:12.615Z,27.83
2018-07-04T11:50:40.376Z,26.60
2018-07-04T11:53:08.177Z,26.60
2018-07-04T11:55:36.697Z,26.61
2018-07-04T11:58:04.493Z,27.01
2018-07-04T12:00:32.327Z,26.53
2018-07-04T12:03:00.108Z,26.19
2018-07-04T12:05:46.384Z,27.03
2018-07-04T12:08:14.189Z,26.98
2018-07-04T12:10:42.109Z,25.80
2018-07-04T12:13:09.886Z,25.79
2018-07-04T12:15:38.066Z,26.15
2018-07-04T12:18:05.824Z,24.95
2018-07-04T12:20:33.576Z,25.67
2018-07-04T12:23:01.372Z,25.26
2018-07-04T12:25:29.140Z,25.53
2018-07-04T12:27:56.935Z,24.67
2018-07-04T12:30:24.835Z,24.76
2018-07-04T12:32:52.636Z,25.26
2018-07-04T12:35:20.520Z,24.16
2018-07-04T12:37:48.513Z,25.18
2018-07-04T12:40:16.310Z,24.68
2018-07-04T12:42:44.110Z,24.79
2018-07-04T12:45:11.908Z,24.64
2018-07-04T12:47:39.697Z,24.03
2018-07-04T12:50:26.223Z,23.81
2018-07-04T12:52:54.131Z,23.62
2018-07-04T12:55:42.154Z,24.13
2018-07-04T12:58:28.935Z,24.43
2018-07-04T13:01:15.160Z,23.42
2018-07-04T13:04:01.526Z,23.08
2018-07-04T13:06:47.783Z,22.79
2018-07-04T13:09:34.197Z,22.98
2018-07-04T13:12:21.039Z,23.68
2018-07-04T13:15:07.444Z,22.88
2018-07-04T13:17:53.687Z,22.59
2018-07-04T13:20:39.818Z,21.39
2018-07-04T13:23:26.204Z,21.29
2018-07-04T13:26:12.330Z,22.36
2018-07-04T13:28:58.709Z,22.02
2018-07-04T13:31:44.833Z,22.29
2018-07-04T13:34:31.049Z,21.50
2018-07-04T13:37:17.294Z,21.94
2018-07-04T13:40:03.673Z,21.95
2018-07-04T13:42:49.757Z,22.62
2018-07-04T13:45:36.107Z,21.82
2018-07-04T13:48:22.222Z,21.80
2018-07-04T13:51:08.417Z,22.21
2018-07-04T13:53:54.477Z,22.91
2018-07-04T13:56:40.735Z,22.06
2018-07-04T13:59:27.247Z,21.40
2018-07-04T14:02:15.350Z,21.14
2018-07-04T14:05:01.782Z,21.72
2018-07-04T14:07:48.187Z,22.05
2018-07-04T14:10:34.390Z,22.57
2018-07-04T14:13:20.811Z,22.61
2018-07-04T14:16:07.105Z,21.80
2018-07-04T14:18:53.453Z,22.82
2018-07-04T14:21:39.915Z,21.57
2018-07-04T14:24:26.106Z,22.29
2018-07-04T14:27:12.353Z,22.22
2018-07-04T14:29:58.646Z,23.12
2018-07-04T14:32:44.824Z,23.16
2018-07-04T14:35:31.245Z,23.25
2018-07-04T14:38:17.265Z,22.59
2018-07-04T14:41:03.339Z,23.34
2018-07-04T14:43:49.591Z,24.54
2018-07-04T14:46:35.803Z,23.69
2018-07-04T14:49:22.194Z,23.88
2018-07-04T14:52:09.313Z,23.64
2018-07-04T14:54:55.480Z,23.37
2018-07-04T14:57:41.749Z,23.64
2018-07-04T15:00:28.088Z,23.80
2018-07-04T15:03:14.168Z,23.59
2018-07-04T15:06:00.470Z,24.52
2018-07-04T15:08:47.178Z,24.03
2018-07-04T15:11:33.624Z,23.48
2018-07-04T15:14:19.784Z,23.81
2018-07-04T15:16:59.979Z,24.75
2018-07-04T15:19:46.351Z,23.71
2018-07-04T15:22:32.723Z,23.86
2018-07-04T15:25:18.954Z,23.78
2018-07-04T15:28:05.180Z,23.90
2018-07-04T15:30:51.272Z,23.98
2018-07-04T15:33:37.435Z,23.27
2018-07-04T15:36:23.552Z,23.32
2018-07-04T15:39:09.765Z,24.24
2018-07-04T15:41:56.187Z,23.78
2018-07-04T15:44:42.314Z,24.68
2018-07-04T15:47:28.510Z,24.57
2018-07-04T15:50:14.628Z,24.21
2018-07-04T15:53:00.841Z,24.95
2018-07-04T15:55:47.136Z,23.81
2018-07-04T15:58:33.580Z,24.95
2018-07-04T16:01:19.846Z,24.50
2018-07-04T16:04:06.091Z,24.42
2018-07-04T16:06:52.340Z,24.80
2018-07-04T16:09:38.906Z,25.26
2018-07-04T16:12:25.199Z,25.36
2018-07-04T16:15:12.044Z,25.56
2018-07-04T16:17:52.460Z,25.14
2018-07-04T16:20:38.973Z,25.54
2018-07-04T16:23:25.171Z,24.60
2018-07-04T16:26:11.531Z,24.94
2018-07-04T16:28:57.795Z,25.57
2018-07-04T16:31:44.230Z,25.71
2018-07-04T16:34:30.407Z,25.22
2018-07-04T16:37:10.761Z,25.31
2018-07-04T16:39:51.296Z,25.59
2018-07-04T16:42:37.469Z,25.60
2018-07-04T16:45:23.775Z,24.92
2018-07-04T16:48:10.274Z,25.44
2018-07-04T16:50:56.609Z,25.08
2018-07-04T16:53:42.785Z,24.97
2018-07-04T16:56:29.394Z,24.63
2018-07-04T16:59:10.308Z,24.43
2018-07-04T17:01:50.652Z,25.03
2018-07-04T17:04:37.157Z,24.41
2018-07-04T17:07:23.550Z,23.81
2018-07-04T17:10:10.148Z,25.41
2018-07-04T17:12:56.427Z,24.54
2018-07-04T17:15:42.676Z,24.59
2018-07-04T17:18:28.788Z,24.26
2018-07-04T17:21:15.494Z,24.73
2018-07-04T17:24:01.883Z,24.73
2018-07-04T17:26:48.368Z,24.62
2018-07-04T17:29:34.582Z,25.72
2018-07-04T17:32:21.047Z,25.56
2018-07-04T17:35:07.280Z,25.33
2018-07-04T17:37:53.735Z,25.28
2018-07-04T17:40:40.045Z,24.81
2018-07-04T17:43:26.187Z,24.96
2018-07-04T17:46:12.549Z,24.84
2018-07-04T17:48:58.874Z,24.63
2018-07-04T17:51:44.964Z,25.41
2018-07-04T17:54:32.445Z,25.60
2018-07-04T17:57:18.674Z,25.42
2018-07-04T18:00:05.075Z,26.10
2018-07-04T18:02:51.258Z,26.30
2018-07-04T18:05:37.491Z,25.63
2018-07-04T18:08:17.947Z,25.87
2018-07-04T18:11:04.422Z,26.37
2018-07-04T18:13:50.798Z,26.51
2018-07-04T18:16:37.200Z,27.06
2018-07-04T18:19:23.628Z,26.63
2018-07-04T18:22:09.933Z,27.62
2018-07-04T18:24:56.170Z,27.35
2018-07-04T18:27:42.985Z,27.00
2018-07-04T18:30:29.323Z,27.21
2018-07-04T18:33:15.605Z,27.20
2018-07-04T18:36:01.884Z,26.75
2018-07-04T18:38:48.240Z,27.30
2018-07-04T18:41:34.474Z,27.38
2018-07-04T18:44:20.927Z,27.32
2018-07-04T18:47:07.109Z,28.54
2018-07-04T18:49:53.480Z,28.51
2018-07-04T18:52:33.666Z,28.27
2018-07-04T18:55:20.251Z,28.40
2018-07-04T18:58:06.648Z,29.72
2018-07-04T19:00:53.038Z,30.17
2018-07-04T19:03:39.590Z,29.29
2018-07-04T19:06:25.897Z,30.42
2018-07-04T19:09:12.032Z,30.62
2018-07-04T19:11:58.359Z,31.40
2018-07-04T19:14:44.452Z,30.69
2018-07-04T19:17:30.727Z,30.72
2018-07-04T19:20:16.886Z,31.54
2018-07-04T19:23:03.119Z,31.48
2018-07-04T19:25:49.381Z,32.28
2018-07-04T19:28:35.589Z,32.89
2018-07-04T19:31:21.711Z,34.71
2018-07-04T19:34:08.113Z,35.06
2018-07-04T19:36:54.425Z,35.59
2018-07-04T19:39:40.787Z,36.04
2018-07-04T19:42:27.053Z,36.76
2018-07-04T19:45:13.391Z,37.15
2018-07-04T19:47:59.531Z,37.11
2018-07-04T19:50:46.233Z,37.95
2018-07-04T19:53:32.381Z,37.69
2018-07-04T19:56:18.538Z,38.22
2018-07-04T19:58:58.725Z,39.26
2018-07-04T20:01:44.996Z,39.48
2018-07-04T20:04:31.396Z,39.89
2018-07-04T20:07:17.891Z,39.58
2018-07-04T20:10:04.263Z,40.02
2018-07-04T20:12:50.543Z,41.26
2018-07-04T20:15:36.943Z,40.58
2018-07-04T20:18:23.445Z,41.88
2018-07-04T20:21:09.642Z,42.32
2018-07-04T20:23:55.939Z,41.84
2018-07-04T20:26:42.292Z,42.68
2018-07-04T20:29:28.768Z,42.30
2018-07-04T20:32:14.864Z,43.18
2018-07-04T20:35:01.122Z,43.32
2018-07-04T20:37:47.470Z,43.36
2018-07-04T20:40:33.704Z,43.22
2018-07-04T20:43:19.868Z,43.00
2018-07-04T20:46:06.149Z,44.04
2018-07-04T20:48:52.568Z,43.88
2018-07-04T20:51:38.944Z,43.33
2018-07-04T20:54:25.107Z,43.20
2018-07-04T20:57:11.601Z,43.46
2018-07-04T20:59:58.164Z,43.55
2018-07-04T21:02:44.606Z,43.33
2018-07-04T21:05:30.947Z,42.48
2018-07-04T21:08:17.450Z,42.03
2018-07-04T21:11:03.552Z,41.63
2018-07-04T21:13:49.799Z,41.69
2018-07-04T21:16:36.199Z,41.47
2018-07-04T21:19:22.514Z,41.48
2018-07-04T21:22:08.695Z,42.04
2018-07-04T21:24:54.786Z,41.66
2018-07-04T21:27:41.014Z,42.39
2018-07-04T21:30:27.410Z,42.48
2018-07-04T21:33:14.800Z,42.30
2018-07-04T21:36:01.419Z,42.59
2018-07-04T21:38:49.201Z,42.05
2018-07-04T21:41:35.350Z,42.55
2018-07-04T21:44:21.857Z,42.85
2018-07-04T21:47:08.573Z,42.16
2018-07-04T21:49:54.851Z,42.85
2018-07-04T21:52:40.920Z,42.68
2018-07-04T21:55:27.094Z,43.30
2018-07-04T21:58:13.449Z,43.39
2018-07-04T22:00:59.882Z,44.49
2018-07-04T22:03:46.558Z,44.85
2018-07-04T22:06:32.922Z,44.90
2018-07-04T22:09:19.156Z,44.36
2018-07-04T22:12:05.584Z,43.54
2018-07-04T22:14:51.820Z,44.73
2018-07-04T22:17:38.030Z,43.68
2018-07-04T22:20:24.413Z,44.44
2018-07-04T22:23:10.552Z,44.36
2018-07-04T22:25:56.883Z,44.17
2018-07-04T22:28:43.152Z,43.96
2018-07-04T22:31:29.446Z,44.10
2018-07-04T22:34:15.606Z,44.46
2018-07-04T22:37:02.607Z,44.46
2018-07-04T22:39:49.658Z,44.28
2018-07-04T22:42:36.147Z,44.20
2018-07-04T22:45:22.327Z,44.79
2018-07-04T22:48:08.562Z,44.75
2018-07-04T22:50:54.821Z,45.29
2018-07-04T22:53:41.581Z,44.82
2018-07-04T22:56:27.710Z,44.84
2018-07-04T22:59:14.283Z,45.70
2018-07-04T23:02:00.762Z,45.98
2018-07-04T23:04:46.925Z,45.81
2018-07-04T23:07:33.387Z,45.97
2018-07-04T23:10:25.359Z,46.66
2018-07-04T23:13:11.873Z,47.31
2018-07-04T23:16:01.848Z,47.32
2018-07-04T23:18:48.527Z,47.26
2018-07-04T23:21:34.896Z,47.84
2018-07-04T23:24:21.291Z,47.40
2018-07-04T23:27:07.588Z,47.98
2018-07-04T23:29:54.096Z,48.83
2018-07-04T23:32:40.618Z,49.50
2018-07-04T23:35:26.757Z,49.59
2018-07-04T23:38:13.285Z,49.39
2018-07-04T23:40:59.390Z,49.75
2018-07-04T23:43:46.161Z,49.83
2018-07-04T23:46:32.520Z,49.64
2018-07-04T23:49:18.938Z,49.62
2018-07-04T23:52:05.368Z,49.64
2018-07-04T23:54:51.893Z,49.31
2018-07-04T23:57:38.349Z,49.78
